createdAt,value
2023-05-02T00:04:28.542Z,70.02
2023-05-02T00:09:32.231Z,74.20
2023-05-02T00:14:36.030Z,73.32
2023-05-02T00:19:41.312Z,73.67
2023-05-02T00:24:45.001Z,75.94
2023-05-02T00:29:48.901Z,76.93
2023-05-02T00:34:54.295Z,76.47
2023-05-02T00:39:58.218Z,77.75
2023-05-02T00:45:02.216Z,78.61
2023-05-02T00:50:08.142Z,80.02
2023-05-02T00:55:11.882Z,77.52
2023-05-02T01:00:15.958Z,79.37
2023-05-02T01:05:23.640Z,79.59
2023-05-02T01:10:31.985Z,78.56
2023-05-02T01:15:36.708Z,80.60
2023-05-02T01:20:43.621Z,83.53
2023-05-02T01:25:56.718Z,90.03
2023-05-02T01:31:04.623Z,89.63
2023-05-02T01:36:08.734Z,87.87
2023-05-02T01:41:13.450Z,95.92
2023-05-02T01:46:19.744Z,95.38
2023-05-02T01:51:25.081Z,95.42
2023-05-02T01:56:30.689Z,100.00
2023-05-02T02:01:36.511Z,100.00
2023-05-02T02:06:40.696Z,100.00
2023-05-02T02:11:45.753Z,100.00
2023-05-02T02:16:52.276Z,100.00
2023-05-02T02:21:57.281Z,100.00
2023-05-02T02:27:01.077Z,100.00
2023-05-02T02:32:06.314Z,100.00
2023-05-02T02:37:11.921Z,100.00
2023-05-02T02:42:17.516Z,100.00
2023-05-02T02:47:26.251Z,100.00
2023-05-02T02:52:35.082Z,100.00
2023-05-02T02:57:40.911Z,100.00
2023-05-02T03:02:49.147Z,100.00
2023-05-02T03:07:55.795Z,100.00
2023-05-02T03:13:01.991Z,100.00
2023-05-02T03:18:09.715Z,100.00
2023-05-02T03:23:16.378Z,100.00
2023-05-02T03:28:23.244Z,100.00
2023-05-02T03:33:33.315Z,100.00
2023-05-02T03:38:40.057Z,100.00
2023-05-02T03:43:50.011Z,100.00
2023-05-02T03:49:01.135Z,97.15
2023-05-02T03:54:08.156Z,98.73
2023-05-02T03:59:16.438Z,98.42
2023-05-02T04:04:25.672Z,97.32
2023-05-02T04:09:33.941Z,93.20
2023-05-02T04:14:49.978Z,92.61
2023-05-02T04:19:58.589Z,92.03
2023-05-02T04:25:07.767Z,91.59
2023-05-02T04:30:16.234Z,90.62
2023-05-02T04:35:31.198Z,85.58
2023-05-02T04:40:38.351Z,93.97
2023-05-02T04:45:46.164Z,99.34
2023-05-02T04:51:01.836Z,92.76
2023-05-02T04:56:10.062Z,87.02
2023-05-02T05:01:17.656Z,82.09
2023-05-02T05:06:27.061Z,81.32
2023-05-02T05:11:33.492Z,83.30
2023-05-02T05:16:38.888Z,82.80
2023-05-02T05:21:46.212Z,81.11
2023-05-02T05:26:55.341Z,82.30
2023-05-02T05:32:02.289Z,81.05
2023-05-02T05:37:10.303Z,76.96
2023-05-02T05:42:17.500Z,67.36
2023-05-02T05:47:27.558Z,63.04
2023-05-02T05:52:35.762Z,59.38
2023-05-02T05:57:42.852Z,64.31
2023-05-02T06:02:49.744Z,67.89
2023-05-02T06:08:09.090Z,67.71
2023-05-02T06:13:15.567Z,67.23
2023-05-02T06:18:23.287Z,67.38
2023-05-02T06:23:31.130Z,66.14
2023-05-02T06:28:37.956Z,64.31
2023-05-02T06:33:44.477Z,63.04
2023-05-02T06:38:55.827Z,59.24
2023-05-02T06:44:02.294Z,54.50
2023-05-02T06:49:09.100Z,50.69
2023-05-02T06:54:16.298Z,53.15
2023-05-02T06:59:21.457Z,54.47
2023-05-02T07:04:27.814Z,52.25
2023-05-02T07:09:35.751Z,51.64
2023-05-02T07:14:42.162Z,51.61
2023-05-02T07:19:48.672Z,51.52
2023-05-02T07:25:01.244Z,52.27
2023-05-02T07:30:08.290Z,52.63
2023-05-02T07:35:13.790Z,53.26
2023-05-02T07:40:21.468Z,56.69
2023-05-02T07:45:28.081Z,56.17
2023-05-02T07:50:34.292Z,54.87
2023-05-02T07:55:42.319Z,56.34
2023-05-02T08:00:48.941Z,53.43
2023-05-02T08:05:55.097Z,51.85
2023-05-02T08:11:02.970Z,51.46
2023-05-02T08:16:09.922Z,53.92
2023-05-02T08:21:15.877Z,50.91
2023-05-02T08:26:25.376Z,51.34
2023-05-02T08:31:31.809Z,50.62
2023-05-02T08:36:38.687Z,51.24
2023-05-02T08:41:46.340Z,50.21
2023-05-02T08:46:52.963Z,47.95
2023-05-02T08:52:00.279Z,48.79
2023-05-02T08:57:07.353Z,50.49
2023-05-02T09:02:15.363Z,49.48
2023-05-02T09:07:21.454Z,50.68
2023-05-02T09:12:28.525Z,50.98
2023-05-02T09:17:41.213Z,50.06
2023-05-02T09:22:52.933Z,48.12
2023-05-02T09:28:01.643Z,45.56
2023-05-02T09:33:05.737Z,47.46
2023-05-02T09:38:21.028Z,47.19
2023-05-02T09:43:27.967Z,48.13
2023-05-02T09:48:33.716Z,46.58
2023-05-02T09:53:45.584Z,45.55
2023-05-02T09:58:52.646Z,44.66
2023-05-02T10:03:59.231Z,41.79
2023-05-02T10:09:05.826Z,44.89
2023-05-02T10:14:14.406Z,43.18
2023-05-02T10:19:22.369Z,40.61
2023-05-02T10:24:29.060Z,41.12
2023-05-02T10:29:35.118Z,40.71
2023-05-02T10:34:40.252Z,41.18
2023-05-02T10:39:45.733Z,42.61
2023-05-02T10:44:52.504Z,37.44
2023-05-02T10:49:59.319Z,37.41
2023-05-02T10:55:22.173Z,37.03
2023-05-02T11:00:30.977Z,38.08
2023-05-02T11:05:57.090Z,34.76
2023-05-02T11:11:18.121Z,33.84
2023-05-02T11:16:25.868Z,34.35
2023-05-02T11:21:33.445Z,35.15
2023-05-02T11:26:40.042Z,36.62
2023-05-02T11:32:04.486Z,40.76
2023-05-02T11:37:16.040Z,46.13
2023-05-02T11:42:31.746Z,50.42
2023-05-02T11:47:39.235Z,50.46
2023-05-02T11:52:47.732Z,50.95
2023-05-02T11:57:53.401Z,54.23
2023-05-02T12:02:59.894Z,48.25
2023-05-02T12:08:07.928Z,45.92
2023-05-02T12:13:15.149Z,45.88
2023-05-02T12:18:23.940Z,38.99
2023-05-02T12:23:30.381Z,37.68
2023-05-02T12:28:50.990Z,34.50
2023-05-02T12:33:58.397Z,34.32
2023-05-02T12:39:06.634Z,33.97
2023-05-02T12:44:12.932Z,35.18
2023-05-02T12:49:19.638Z,39.41
2023-05-02T12:54:27.525Z,44.70
2023-05-02T12:59:34.540Z,50.54
2023-05-02T13:04:42.729Z,81.13
2023-05-02T13:09:50.667Z,100.00
2023-05-02T13:14:57.310Z,100.00
2023-05-02T13:20:02.854Z,100.00
2023-05-02T13:25:10.728Z,100.00
2023-05-02T13:30:16.347Z,100.00
2023-05-02T13:35:22.173Z,100.00
2023-05-02T13:40:29.336Z,85.86
2023-05-02T13:45:34.954Z,100.00
2023-05-02T13:50:40.183Z,100.00
2023-05-02T13:55:47.246Z,100.00
2023-05-02T14:00:53.487Z,88.86
2023-05-02T14:05:59.879Z,77.23
2023-05-02T14:11:07.594Z,80.45
2023-05-02T14:16:13.552Z,80.71
2023-05-02T14:21:19.716Z,76.90
2023-05-02T14:26:27.333Z,77.08
2023-05-02T14:31:34.133Z,83.62
2023-05-02T14:36:40.494Z,78.32
2023-05-02T14:41:48.378Z,76.62
2023-05-02T14:46:57.258Z,87.88
2023-05-02T14:52:03.782Z,94.40
2023-05-02T14:57:11.930Z,94.89
2023-05-02T15:02:17.527Z,97.74
2023-05-02T15:07:23.347Z,98.60
2023-05-02T15:12:31.447Z,99.54
2023-05-02T15:17:37.993Z,100.00
2023-05-02T15:22:44.105Z,90.44
2023-05-02T15:27:52.267Z,80.27
2023-05-02T15:32:58.566Z,79.32
2023-05-02T15:38:03.624Z,79.17
2023-05-02T15:43:10.912Z,75.51
2023-05-02T15:48:17.352Z,79.63
2023-05-02T15:53:23.831Z,79.42
2023-05-02T15:58:30.767Z,84.39
2023-05-02T16:03:37.162Z,86.23
2023-05-02T16:08:42.372Z,82.43
2023-05-02T16:13:49.436Z,82.15
2023-05-02T16:18:55.518Z,98.38
2023-05-02T16:24:00.552Z,100.00
2023-05-02T16:29:07.389Z,100.00
2023-05-02T16:34:13.332Z,100.00
2023-05-02T16:39:19.407Z,100.00
2023-05-02T16:44:27.376Z,100.00
2023-05-02T16:49:32.248Z,100.00
2023-05-02T16:54:36.056Z,100.00
2023-05-02T16:59:41.167Z,100.00
2023-05-02T17:04:44.886Z,100.00
2023-05-02T17:09:48.628Z,100.00
2023-05-02T17:14:53.823Z,100.00
2023-05-02T17:19:57.566Z,100.00
2023-05-02T17:25:01.483Z,100.00
2023-05-02T17:30:07.516Z,100.00
2023-05-02T17:35:11.702Z,100.00
2023-05-02T17:40:15.460Z,100.00
2023-05-02T17:45:20.576Z,100.00
2023-05-02T17:50:24.190Z,100.00
2023-05-02T17:55:27.861Z,100.00
2023-05-02T18:22:28.029Z,100.00
2023-05-02T18:27:32.052Z,100.00
2023-05-02T18:32:36.206Z,100.00
2023-05-02T18:37:41.564Z,100.00
2023-05-02T18:42:45.507Z,100.00
2023-05-02T18:47:51.080Z,100.00
2023-05-02T18:52:56.441Z,100.00
2023-05-02T18:58:00.359Z,100.00
2023-05-02T19:03:04.665Z,100.00
2023-05-02T19:08:10.552Z,100.00
2023-05-02T19:13:14.646Z,100.00
2023-05-02T19:18:18.721Z,100.00
2023-05-02T19:23:24.356Z,100.00
2023-05-02T19:28:28.411Z,100.00
2023-05-02T19:33:32.382Z,100.00
2023-05-02T19:38:37.702Z,100.00
2023-05-02T19:43:41.625Z,100.00
2023-05-02T19:48:46.748Z,100.00
2023-05-02T19:53:53.024Z,100.00
2023-05-02T19:58:56.980Z,100.00
2023-05-02T20:04:01.369Z,100.00
2023-05-02T20:09:06.737Z,100.00
2023-05-02T20:14:10.657Z,100.00
2023-05-02T20:19:14.810Z,100.00
2023-05-02T20:24:20.352Z,100.00
2023-05-02T20:29:24.851Z,100.00
2023-05-02T20:34:28.817Z,100.00
2023-05-02T20:39:34.192Z,100.00
2023-05-02T20:44:39.161Z,100.00
2023-05-02T20:49:43.241Z,100.00
2023-05-02T20:54:49.443Z,100.00
2023-05-02T20:59:53.516Z,100.00
2023-05-02T21:04:57.605Z,100.00
2023-05-02T21:10:03.061Z,100.00
2023-05-02T21:15:08.612Z,100.00
2023-05-02T21:20:13.727Z,100.00
2023-05-02T21:25:19.099Z,100.00
2023-05-02T21:30:24.413Z,100.00
2023-05-02T21:35:28.811Z,100.00
2023-05-02T21:40:38.928Z,100.00
2023-05-02T21:45:46.815Z,100.00
2023-05-02T21:50:51.016Z,100.00
2023-05-02T21:55:56.341Z,100.00
2023-05-02T22:01:00.936Z,100.00
2023-05-02T22:06:06.713Z,100.00
2023-05-02T22:11:12.077Z,100.00
2023-05-02T22:16:17.204Z,100.00
2023-05-02T22:21:21.664Z,100.00
2023-05-02T22:26:27.001Z,100.00
2023-05-02T22:31:31.446Z,100.00
2023-05-02T22:36:35.843Z,100.00
2023-05-02T22:41:41.279Z,100.00
2023-05-02T22:46:45.745Z,100.00
2023-05-02T22:51:49.863Z,100.00
2023-05-02T22:56:55.428Z,100.00
2023-05-02T23:02:00.586Z,100.00
2023-05-02T23:07:04.654Z,100.00
2023-05-02T23:12:09.921Z,100.00
2023-05-02T23:17:13.795Z,100.00
2023-05-02T23:22:17.652Z,100.00
2023-05-02T23:27:23.007Z,100.00
2023-05-02T23:32:27.166Z,100.00
2023-05-02T23:37:31.147Z,100.00
2023-05-02T23:42:40.239Z,100.00
2023-05-02T23:47:44.611Z,100.00
2023-05-02T23:52:48.626Z,100.00
2023-05-02T23:57:53.880Z,100.00
